Portada
METAR-TAF:

METAR-TAF

Aeroports :

Szczecin, Polònia

latitud: 53-35N, longitud: 014-54E, altitud: 1 m

Observació

L'informe es va fer fa 25 minuts, a les 00:30 UTC
Vent 2 kt del Est/Sud-Est
Temperatura 5°C
Humitat 93%
Pressió 1020 hPa
Visibilitat 10 km o més
sense núvols per sota de 1500 mi sense presència de cumulonimbus.

METAR: EPSC 160030Z 12002KT CAVOK 05/04 Q1020

Hora: 02:55 (00:55 UTC)

Pronòstic

L'informe es va fer fa 1 hora i 25 minuts, a les 23:30 UTC
Pronòstic vàlid del 16 a les 00 UTC al 16 a les 24 UTC
Vent 3 kt amb direcció variable
Visibilitat 10 km o més
sense núvols per sota de 1500 mi sense presència de cumulonimbus.
Evolucionant progressivament
l' 16 a les 17 UTC al 16 a les 20 UTC
Vent 10 kt del Est/Sud-Est

TAF: EPSC 152330Z 1600/1624 VRB03KT CAVOK BECMG 1617/1620 12010KT

Observacions i pronòstics meteorològics de més de 4000 aeroports (METAR i TAF).

Les estacions disponibles són els punts grocs i vermells al mapa.

Posi el ratolí al punt desitjat per veure el nom de l'estació.

Feu clic per veure les observacions i els pronòstics meteorològics.

Per canviar el mapa: feu clic els botons verds amb una creu de color negre per apropar; al botó verd amb un guió per allunyar la imatge; o en les fletxes verdes per a mapes adjacents.


METAR-TAF: